Hesperia, Michigan
Current Conditions -  °F | °C
As of 7:31 PM on Monday 24 Nov 2014 (Local Time) from KFFX Reporting Station
Light Snow Light Snow  
Wind Chill: 20°   Ceiling: 900
Heat Index: 32°   Visibility: 2mi
Dew Point: 31°   Wind: 18mph
Humidity: 96%   Direction: 240°WSW
Pressure: 29.45"   Gusts: 31mph
Location:  43.57°N, 86.04°W
Report Text: KFFX 250031Z AUTO 24016G27KT 2SM -SN OVC009 00/00 A2945 RMK AO2 T00001005
Loading
Personal Weather Stations






























Interactive Weather Map New forecast layout! Learn more

10-Day Weather Forecast

Advertisements
Track Severe Weather on mobile